Time;durP1;ratioP1;P1;durP2;ratioP2;P2;SDS_P1;SDS_P2;PMS_P1;PMS_P2;Temp;Humidity;BMP_temperature;BMP_pressure;BME280_temperature;BME280_humidity;BME280_pressure;Samples;Min_cycle;Max_cycle;Signal;HPM_P1;HPM_P2
2022/09/05 00:02:38;;;;;;;6.75;4.85;;;;;;;20.86;84.57;99054.66;5020544;28;20058;-60
2022/09/05 00:05:28;;;;;;;7.88;4.50;;;;;;;20.61;84.47;99022.69;5009789;28;20041;-59
2022/09/05 00:08:30;;;;;;;7.68;4.75;;;;;;;20.82;84.31;99056.88;5012356;28;20042;-59
2022/09/05 00:11:09;;;;;;;6.38;4.68;;;;;;;20.87;84.19;99057.09;4999042;28;20029;-60
2022/09/05 00:13:38;;;;;;;8.15;5.13;;;;;;;20.82;84.09;99045.50;4998905;28;20032;-60
2022/09/05 00:16:39;;;;;;;7.57;4.95;;;;;;;20.90;83.72;99056.72;5027564;28;20512;-59
2022/09/05 00:19:22;;;;;;;9.32;5.78;;;;;;;20.87;84.02;99059.75;5019579;28;20076;-60
2022/09/05 00:22:09;;;;;;;9.25;5.10;;;;;;;20.64;84.06;99020.44;5012499;28;20049;-60
2022/09/05 00:24:58;;;;;;;6.78;4.85;;;;;;;20.53;84.69;99024.47;5016533;28;20096;-59
2022/09/05 00:27:39;;;;;;;6.15;4.65;;;;;;;20.84;84.08;99057.50;5008618;28;20894;-60
2022/09/05 00:30:13;;;;;;;7.55;4.88;;;;;;;20.83;84.03;99052.44;5018594;28;20049;-60
2022/09/05 00:33:03;;;;;;;7.15;5.05;;;;;;;20.88;83.73;99056.09;5021581;28;20091;-59
2022/09/05 00:35:33;;;;;;;8.10;4.90;;;;;;;20.87;83.57;99057.09;5011105;28;20037;-59
2022/09/05 00:38:14;;;;;;;6.82;4.60;;;;;;;20.86;83.98;99060.78;5014975;28;20547;-60
2022/09/05 00:40:51;;;;;;;6.65;4.72;;;;;;;20.82;84.32;99062.16;4999705;28;20037;-59
2022/09/05 00:43:20;;;;;;;6.57;4.75;;;;;;;20.75;84.45;99056.03;5000536;28;20052;-60
2022/09/05 00:45:57;;;;;;;6.82;5.00;;;;;;;20.80;84.64;99060.75;5007964;28;20066;-59
2022/09/05 00:48:25;;;;;;;8.45;4.75;;;;;;;20.79;85.43;99059.09;5001852;28;20040;-58
2022/09/05 00:51:16;;;;;;;7.18;4.72;;;;;;;20.82;85.58;99056.88;5020623;28;20080;-60
2022/09/05 00:53:55;;;;;;;6.55;5.05;;;;;;;20.85;86.46;99058.31;5015559;28;20649;-60
2022/09/05 00:56:20;;;;;;;;;;;;;;;20.87;86.52;99057.09;4997641;28;20033;-60
2022/09/05 00:58:55;;;;;;;6.37;4.87;;;;;;;20.87;85.65;99053.66;4996765;28;19921;-60
2022/09/05 01:01:50;;;;;;;5.95;5.00;;;;;;;20.87;85.70;99059.75;5013622;28;20052;-60
2022/09/05 01:04:44;;;;;;;8.05;5.15;;;;;;;20.60;85.58;99021.84;5004704;28;20038;-60
2022/09/05 01:07:31;;;;;;;7.03;4.68;;;;;;;20.58;85.35;99020.44;5012253;28;20454;-59
2022/09/05 01:10:10;;;;;;;9.02;5.30;;;;;;;20.79;85.84;99057.28;5021207;28;20033;-61
2022/09/05 01:12:54;;;;;;;5.95;4.45;;;;;;;20.87;85.42;99056.28;5001045;28;20059;-60
2022/09/05 01:15:34;;;;;;;7.07;4.60;;;;;;;20.83;85.82;99061.16;5010645;28;20029;-60
2022/09/05 01:18:18;;;;;;;;;;;;;;;20.78;86.37;99060.94;4999152;28;20030;-59
2022/09/05 01:20:51;;;;;;;6.30;5.10;;;;;;;20.77;86.43;99059.28;5023909;28;19924;-60
2022/09/05 01:23:38;;;;;;;7.43;5.07;;;;;;;20.73;86.83;99060.72;5044770;28;20040;-60
2022/09/05 01:26:37;;;;;;;6.68;4.82;;;;;;;20.79;86.67;99067.88;5013324;28;20060;-60
2022/09/05 01:29:24;;;;;;;7.10;4.68;;;;;;;20.73;86.99;99063.38;5013680;28;20443;-59
2022/09/05 01:32:08;;;;;;;6.88;4.85;;;;;;;20.73;87.42;99066.00;5017762;28;20025;-60
2022/09/05 01:34:56;;;;;;;6.45;5.07;;;;;;;20.65;88.12;99066.19;5010977;28;20026;-62
2022/09/05 01:37:43;;;;;;;8.65;4.85;;;;;;;20.66;87.80;99065.16;5040307;28;20492;-60
2022/09/05 01:40:29;;;;;;;6.05;4.68;;;;;;;20.46;88.18;99047.41;5031860;28;20040;-60
2022/09/05 01:43:04;;;;;;;7.93;5.13;;;;;;;20.59;88.09;99067.78;5016290;28;20033;-60
2022/09/05 01:45:33;;;;;;;6.90;4.97;;;;;;;20.60;87.86;99068.59;5027008;28;20102;-59
2022/09/05 01:48:09;;;;;;;6.70;5.10;;;;;;;20.49;87.48;99038.28;5017990;28;20129;-59
2022/09/05 01:50:55;;;;;;;7.60;5.15;;;;;;;20.59;87.70;99062.50;5033504;28;20557;-60
2022/09/05 01:53:46;;;;;;;7.43;5.20;;;;;;;20.58;88.11;99066.13;5036271;28;20036;-59
2022/09/05 01:56:21;;;;;;;7.20;4.88;;;;;;;20.51;88.37;99070.59;5031262;28;20036;-60
2022/09/05 01:59:32;;;;;;;7.43;5.20;;;;;;;20.57;88.04;99067.13;5014290;28;20037;-60
2022/09/05 02:02:15;;;;;;;7.63;4.90;;;;;;;20.60;87.23;99058.81;4999997;28;20072;-59
2022/09/05 02:05:11;;;;;;;7.03;5.07;;;;;;;20.60;87.11;99065.94;5024064;28;20029;-60
2022/09/05 02:07:45;;;;;;;8.15;5.05;;;;;;;20.60;86.97;99058.03;5018398;28;20033;-59
2022/09/05 02:10:17;;;;;;;6.20;4.88;;;;;;;20.65;86.95;99067.00;5016270;28;20034;-59
2022/09/05 02:12:47;;;;;;;6.00;4.78;;;;;;;20.57;87.06;99053.94;5005074;28;20041;-61
2022/09/05 02:15:15;;;;;;;6.57;4.90;;;;;;;20.57;87.08;99038.06;5007005;28;20033;-60
2022/09/05 02:17:41;;;;;;;6.75;4.40;;;;;;;20.62;86.67;99048.09;5005344;28;20784;-60
2022/09/05 02:20:32;;;;;;;7.00;4.88;;;;;;;20.63;86.95;99047.09;5020171;28;20029;-60
2022/09/05 02:22:59;;;;;;;9.15;5.55;;;;;;;20.62;87.31;99040.97;5016554;28;20087;-61
2022/09/05 02:25:39;;;;;;;6.45;5.00;;;;;;;20.63;87.35;99047.91;5017093;28;20028;-59
2022/09/05 02:28:16;;;;;;;7.15;5.15;;;;;;;20.56;87.56;99044.41;5033229;28;20037;-60
2022/09/05 02:30:47;;;;;;;7.38;5.05;;;;;;;20.55;87.43;99046.22;5015454;28;20041;-59
2022/09/05 02:33:33;;;;;;;6.20;4.97;;;;;;;20.51;88.09;99044.97;5018697;28;20095;-60
2022/09/05 02:36:13;;;;;;;6.72;5.05;;;;;;;20.58;87.81;99052.94;5000262;28;20309;-59
2022/09/05 02:39:03;;;;;;;7.60;5.00;;;;;;;20.49;88.22;99051.47;5020030;28;20036;-59
2022/09/05 02:41:37;;;;;;;6.28;5.13;;;;;;;20.48;88.48;99060.41;5021219;28;20128;-60
2022/09/05 02:44:09;;;;;;;6.57;5.03;;;;;;;20.39;88.62;99043.09;5022421;28;20068;-60
2022/09/05 02:46:46;;;;;;;6.40;5.15;;;;;;;20.45;88.72;99053.69;5020748;28;20396;-59
2022/09/05 02:49:40;;;;;;;8.05;5.28;;;;;;;20.43;89.05;99053.09;5014073;28;20045;-60
2022/09/05 02:52:09;;;;;;;6.57;5.03;;;;;;;20.36;89.65;99060.97;5008288;28;20037;-59
2022/09/05 02:54:38;;;;;;;7.90;5.38;;;;;;;20.34;89.48;99055.09;4998441;28;20038;-59
2022/09/05 02:57:22;;;;;;;6.77;4.87;;;;;;;20.36;89.46;99060.16;5004133;28;20033;-59
2022/09/05 02:59:52;;;;;;;8.20;5.57;;;;;;;20.20;89.64;99021.72;5011991;28;20272;-59
2022/09/05 03:02:56;;;;;;;7.97;5.28;;;;;;;20.44;88.40;99051.25;5010777;28;20066;-59
2022/09/05 03:05:22;;;;;;;6.68;4.90;;;;;;;20.41;88.49;99049.84;5011771;28;20084;-60
2022/09/05 03:07:56;;;;;;;7.63;4.75;;;;;;;20.40;88.30;99052.66;5000639;28;20041;-60
2022/09/05 03:10:39;;;;;;;7.55;5.10;;;;;;;20.40;88.22;99052.66;5018093;28;20030;-60
2022/09/05 03:13:19;;;;;;;6.70;5.40;;;;;;;20.38;88.62;99052.84;5012432;28;20077;-60
2022/09/05 03:15:54;;;;;;;7.43;5.07;;;;;;;20.40;87.52;99050.03;5017805;28;20036;-60
2022/09/05 03:18:28;;;;;;;7.18;5.22;;;;;;;20.46;87.02;99046.59;5018031;28;20033;-60
2022/09/05 03:21:15;;;;;;;7.60;4.82;;;;;;;20.41;86.98;99046.34;5015156;28;20453;-58
2022/09/05 03:24:18;;;;;;;7.28;5.22;;;;;;;20.48;86.76;99048.03;5023877;28;20061;-60
2022/09/05 03:27:18;;;;;;;6.10;4.32;;;;;;;20.52;86.72;99051.91;5019015;28;20034;-60
2022/09/05 03:29:46;;;;;;;6.30;5.10;;;;;;;20.48;86.76;99047.19;5005023;28;20056;-60
2022/09/05 03:32:30;;;;;;;7.00;5.07;;;;;;;20.45;87.01;99045.78;5012695;28;20574;-60
2022/09/05 03:35:29;;;;;;;6.85;4.88;;;;;;;20.34;86.64;99049.81;5031820;28;20168;-61
2022/09/05 03:38:10;;;;;;;7.40;5.05;;;;;;;20.31;86.43;99044.91;5014917;28;20040;-59
2022/09/05 03:40:49;;;;;;;6.93;4.65;;;;;;;20.34;86.05;99044.53;5009841;28;20025;-60
2022/09/05 03:43:28;;;;;;;7.45;4.85;;;;;;;20.35;86.34;99046.16;5021605;28;20086;-60
2022/09/05 03:46:30;;;;;;;6.43;5.10;;;;;;;20.38;85.96;99052.06;5017617;28;20030;-60
2022/09/05 03:49:06;;;;;;;6.60;4.95;;;;;;;20.20;86.08;99015.63;4991910;28;20096;-60
2022/09/05 03:51:41;;;;;;;6.65;5.43;;;;;;;20.35;86.23;99043.53;5007890;28;20026;-60
2022/09/05 03:54:29;;;;;;;6.50;4.80;;;;;;;20.43;86.66;99042.53;5019392;28;20072;-60
2022/09/05 03:57:00;;;;;;;6.50;4.93;;;;;;;20.48;85.86;99045.41;5036773;28;20029;-59
2022/09/05 04:00:07;;;;;;;8.15;5.47;;;;;;;20.53;85.60;99042.97;5021670;28;20036;-60
2022/09/05 04:02:45;;;;;;;8.32;5.07;;;;;;;20.50;87.12;99043.38;5014592;28;20144;-60
2022/09/05 04:05:16;;;;;;;10.23;4.90;;;;;;;20.32;87.15;99017.50;5014558;28;20033;-60
2022/09/05 04:07:44;;;;;;;5.57;4.35;;;;;;;20.57;87.76;99053.94;5028280;28;20041;-60
2022/09/05 04:10:12;;;;;;;7.30;4.70;;;;;;;20.62;87.08;99062.09;5002250;28;20037;-59
2022/09/05 04:12:52;;;;;;;6.68;4.90;;;;;;;20.55;88.31;99061.25;5014673;28;20038;-60
2022/09/05 04:15:29;;;;;;;6.88;4.70;;;;;;;20.51;88.15;99063.47;5005615;28;20038;-59
2022/09/05 04:18:00;;;;;;;6.70;4.68;;;;;;;20.47;88.22;99064.06;5021023;28;20165;-60
2022/09/05 04:20:41;;;;;;;7.20;4.93;;;;;;;20.58;87.33;99063.50;5018875;28;20029;-60
2022/09/05 04:23:30;;;;;;;8.45;4.90;;;;;;;20.65;87.00;99071.47;5016203;28;20041;-60
2022/09/05 04:26:09;;;;;;;6.97;4.53;;;;;;;20.64;86.87;99075.13;4994543;28;20096;-60
2022/09/05 04:28:58;;;;;;;6.70;4.93;;;;;;;20.68;86.98;99077.19;5014801;28;20118;-60
2022/09/05 04:31:47;;;;;;;7.35;4.53;;;;;;;20.72;87.35;99078.41;5018098;28;20037;-60
2022/09/05 04:34:15;;;;;;;;;;;;;;;20.75;87.53;99079.81;5022703;28;20034;-60
2022/09/05 04:36:43;;;;;;;8.55;4.57;;;;;;;20.78;87.13;99074.16;5022001;28;20442;-59
2022/09/05 04:39:17;;;;;;;7.20;4.88;;;;;;;20.66;85.94;99076.56;5019767;28;20033;-60
2022/09/05 04:41:47;;;;;;;8.63;5.55;;;;;;;20.73;85.68;99066.81;5021805;28;20574;-60
2022/09/05 04:44:16;;;;;;;;;;;;;;;20.66;86.76;99066.00;5026301;28;20037;-59
2022/09/05 04:46:49;;;;;;;7.28;5.07;;;;;;;20.71;87.27;99070.69;5016170;28;20353;-59
2022/09/05 04:49:21;;;;;;;7.72;4.60;;;;;;;20.57;87.42;99047.84;5003060;28;20400;-60
2022/09/05 04:51:59;;;;;;;7.70;5.03;;;;;;;20.54;87.20;99046.41;4998971;28;20400;-60
2022/09/05 04:54:46;;;;;;;6.55;5.10;;;;;;;20.54;88.09;99057.78;5016094;28;20029;-59
2022/09/05 04:57:29;;;;;;;6.95;4.60;;;;;;;20.53;87.35;99061.47;5000185;28;20052;-59
2022/09/05 05:00:05;;;;;;;8.45;4.75;;;;;;;20.43;87.82;99062.84;5008063;28;20415;-60
2022/09/05 05:02:42;;;;;;;6.70;5.10;;;;;;;20.55;87.70;99095.59;4997712;28;20762;-63
2022/09/05 05:05:29;;;;;;;7.18;4.93;;;;;;;20.45;87.46;99103.06;5043651;28;20036;-59
2022/09/05 05:08:02;;;;;;;8.00;4.80;;;;;;;20.49;87.47;99093.75;5006392;28;20041;-59
2022/09/05 05:10:51;;;;;;;6.72;4.70;;;;;;;20.60;87.37;99106.38;5000172;28;20420;-59
2022/09/05 05:13:16;;;;;;;;;;;;;;;20.63;87.38;99106.03;4987495;28;20782;-60
2022/09/05 05:15:59;;;;;;;6.80;5.07;;;;;;;20.54;88.33;99109.81;5010464;28;19917;-59
2022/09/05 05:18:34;;;;;;;7.90;5.32;;;;;;;20.45;88.90;99113.63;5009096;28;20042;-59
2022/09/05 05:21:05;;;;;;;7.75;5.50;;;;;;;20.29;89.36;99085.72;5005571;28;20021;-59
2022/09/05 05:23:37;;;;;;;7.95;5.30;;;;;;;20.24;89.86;99081.03;5005704;28;20029;-60
2022/09/05 05:26:09;;;;;;;7.03;5.35;;;;;;;20.35;90.84;99100.78;5018626;28;20025;-60
2022/09/05 05:28:37;;;;;;;9.02;5.60;;;;;;;20.34;91.06;99121.09;4980681;28;20034;-60
2022/09/05 05:31:31;;;;;;;6.95;5.25;;;;;;;20.17;91.81;99088.13;5003095;28;20026;-60
2022/09/05 05:34:00;;;;;;;7.63;5.35;;;;;;;20.36;91.90;99118.25;5024695;28;20079;-59
2022/09/05 05:36:29;;;;;;;9.60;6.03;;;;;;;20.34;91.06;99121.09;5007961;28;20218;-60
2022/09/05 05:39:09;;;;;;;8.68;5.55;;;;;;;20.15;91.56;99093.59;5003932;28;20587;-59
2022/09/05 05:41:50;;;;;;;8.75;5.78;;;;;;;20.21;91.94;99107.84;5031011;28;20040;-59
2022/09/05 05:44:35;;;;;;;6.88;5.22;;;;;;;20.43;90.90;99129.69;5007010;28;20068;-58
2022/09/05 05:47:20;;;;;;;9.50;5.43;;;;;;;20.41;91.63;99128.22;5023586;28;20121;-60
2022/09/05 05:49:58;;;;;;;8.00;5.45;;;;;;;20.28;90.48;99103.41;5013802;28;20420;-59
2022/09/05 05:52:44;;;;;;;8.73;5.10;;;;;;;20.46;89.96;99147.78;5009711;28;20087;-60
2022/09/05 05:55:17;;;;;;;6.60;4.90;;;;;;;20.43;89.94;99153.44;5010009;28;20117;-60
2022/09/05 05:58:04;;;;;;;6.88;5.32;;;;;;;20.30;90.04;99121.69;5010966;28;20490;-60
2022/09/05 06:00:54;;;;;;;8.25;5.20;;;;;;;20.47;89.49;99152.03;4997315;28;20389;-58
2022/09/05 06:03:38;;;;;;;7.15;5.22;;;;;;;20.23;89.67;99111.09;5010013;28;20026;-60
2022/09/05 06:06:09;;;;;;;7.55;5.40;;;;;;;20.25;89.91;99111.72;4992533;28;20152;-60
2022/09/05 06:09:31;;;;;;;8.20;5.60;;;;;;;20.52;89.94;99152.28;5008356;28;20475;-60
2022/09/05 06:12:27;;;;;;;7.75;5.70;;;;;;;20.50;90.59;99154.28;4966821;28;20047;-60
2022/09/05 06:15:11;;;;;;;7.25;5.00;;;;;;;20.50;90.08;99151.66;4973717;28;20790;-60
2022/09/05 06:17:52;;;;;;;6.78;4.90;;;;;;;20.50;90.14;99156.13;5001873;28;20077;-60
2022/09/05 06:20:33;;;;;;;7.70;5.10;;;;;;;20.53;88.33;99161.84;5028050;28;20048;-60
2022/09/05 06:23:05;;;;;;;7.07;5.35;;;;;;;20.48;89.21;99158.13;5003998;28;20350;-59
2022/09/05 06:25:37;;;;;;;6.65;5.07;;;;;;;20.29;89.00;99128.78;5012890;28;20116;-60
2022/09/05 06:28:14;;;;;;;8.15;5.13;;;;;;;20.50;88.80;99164.06;5012752;28;20484;-59
2022/09/05 06:31:03;;;;;;;7.13;5.07;;;;;;;20.27;88.96;99136.09;5036350;28;20029;-60
2022/09/05 06:33:53;;;;;;;9.47;5.90;;;;;;;20.49;89.79;99163.22;5004017;28;20054;-60
2022/09/05 06:36:36;;;;;;;6.45;5.07;;;;;;;20.46;89.52;99161.00;4999324;28;20037;-60
2022/09/05 06:39:12;;;;;;;7.97;5.60;;;;;;;20.55;89.19;99156.34;4999535;28;20026;-60
2022/09/05 06:42:02;;;;;;;8.05;5.25;;;;;;;20.54;88.48;99162.66;5001371;28;20312;-60
2022/09/05 06:45:02;;;;;;;8.27;5.78;;;;;;;20.48;89.28;99156.31;5017996;28;20038;-60
2022/09/05 06:47:28;;;;;;;7.47;5.50;;;;;;;20.18;90.00;99134.63;5009583;28;20022;-60
2022/09/05 06:50:10;;;;;;;9.00;5.63;;;;;;;20.23;89.72;99129.56;5004577;28;20038;-60
2022/09/05 06:53:13;;;;;;;7.85;5.45;;;;;;;20.40;89.47;99174.97;5017336;28;20104;-61
2022/09/05 06:56:00;;;;;;;7.47;5.97;;;;;;;20.46;88.23;99173.34;5008253;28;20026;-60
2022/09/05 06:58:37;;;;;;;9.05;5.32;;;;;;;20.46;88.07;99170.72;5010819;28;20566;-60
2022/09/05 07:01:04;;;;;;;6.75;5.40;;;;;;;20.44;88.65;99170.91;5000218;28;20026;-61
2022/09/05 07:04:12;;;;;;;7.07;5.45;;;;;;;20.52;88.11;99189.25;5006666;28;20123;-60
2022/09/05 07:06:58;;;;;;;8.60;5.40;;;;;;;20.43;88.17;99185.13;5037445;28;20025;-60
2022/09/05 07:09:31;;;;;;;7.78;5.43;;;;;;;20.20;88.81;99155.53;5015257;28;20037;-61
2022/09/05 07:12:18;;;;;;;7.60;5.75;;;;;;;20.46;88.32;99184.75;4999591;28;20034;-60
2022/09/05 07:15:02;;;;;;;8.70;5.78;;;;;;;20.49;88.15;99184.34;4999698;28;20029;-60
2022/09/05 07:17:37;;;;;;;8.52;5.85;;;;;;;20.32;89.39;99144.25;5011424;28;20082;-59
2022/09/05 07:20:18;;;;;;;6.75;5.72;;;;;;;20.58;90.31;99176.28;5023633;28;20640;-60
2022/09/05 07:23:02;;;;;;;8.32;5.97;;;;;;;20.67;90.18;99197.06;5012105;28;20030;-59
2022/09/05 07:25:29;;;;;;;8.10;5.80;;;;;;;20.39;90.37;99154.03;5018594;28;20038;-60
2022/09/05 07:28:02;;;;;;;8.23;6.10;;;;;;;20.58;91.18;99186.84;5039931;28;20058;-60
2022/09/05 07:30:28;;;;;;;9.00;5.40;;;;;;;20.51;91.36;99182.31;4991887;28;20034;-60
2022/09/05 07:32:55;;;;;;;8.63;5.93;;;;;;;20.44;93.52;99181.47;5006796;28;20033;-59
2022/09/05 07:35:30;;;;;;;8.07;6.38;;;;;;;20.43;94.47;99193.06;5009028;28;20029;-60
2022/09/05 07:38:08;;;;;;;10.05;6.93;;;;;;;20.32;96.27;99201.53;5020798;28;20029;-61
2022/09/05 07:40:38;;;;;;;8.35;6.65;;;;;;;20.36;96.52;99208.84;4997753;28;20084;-60
2022/09/05 07:43:39;;;;;;;8.32;6.90;;;;;;;20.19;98.11;99193.50;5001326;28;20037;-59
2022/09/05 07:46:18;;;;;;;10.10;7.60;;;;;;;20.17;96.82;99204.28;4997960;28;20042;-59
2022/09/05 07:48:51;;;;;;;8.57;6.30;;;;;;;20.00;94.75;99174.69;5001851;28;20381;-60
2022/09/05 07:51:37;;;;;;;8.18;7.10;;;;;;;20.24;97.61;99212.22;5010389;28;20272;-60
2022/09/05 07:54:19;;;;;;;9.18;7.35;;;;;;;20.30;97.11;99220.22;5005565;28;20042;-59
2022/09/05 07:56:47;;;;;;;11.35;7.82;;;;;;;20.38;99.38;99221.88;5025985;28;20027;-61
2022/09/05 07:59:14;;;;;;;9.80;7.60;;;;;;;20.42;100.00;99209.09;5024509;28;20551;-60
2022/09/05 08:01:45;;;;;;;10.35;8.55;;;;;;;20.23;100.00;99210.63;4995537;28;20026;-60
2022/09/05 08:04:35;;;;;;;9.57;8.07;;;;;;;20.12;100.00;99181.09;5013207;28;20045;-60
2022/09/05 08:07:06;;;;;;;9.40;8.00;;;;;;;20.40;100.00;99211.94;5011011;28;20029;-59
2022/09/05 08:09:35;;;;;;;9.27;7.65;;;;;;;20.20;99.73;99164.28;5011428;28;20496;-58
2022/09/05 08:12:08;;;;;;;11.02;8.73;;;;;;;20.33;100.00;99192.59;5039877;28;20041;-59
2022/09/05 08:14:44;;;;;;;10.45;8.82;;;;;;;20.33;100.00;99201.34;5011949;28;20044;-61
2022/09/05 08:17:20;;;;;;;9.75;8.45;;;;;;;20.35;100.00;99206.41;5006842;28;20041;-59
2022/09/05 08:20:10;;;;;;;9.32;8.20;;;;;;;20.41;100.00;99204.81;5033977;28;20605;-60
2022/09/05 08:22:44;;;;;;;8.95;7.38;;;;;;;20.60;95.00;99213.88;5009695;28;20053;-60
2022/09/05 08:25:21;;;;;;;9.77;7.68;;;;;;;20.41;94.96;99167.84;5007265;28;20038;-59
2022/09/05 08:28:02;;;;;;;8.70;6.60;;;;;;;20.54;93.12;99204.91;5008050;28;20037;-60
2022/09/05 08:30:36;;;;;;;9.85;7.57;;;;;;;20.63;94.30;99205.59;5037543;28;20034;-59
2022/09/05 08:33:06;;;;;;;9.07;7.57;;;;;;;20.61;95.93;99205.78;5010351;28;20771;-60
2022/09/05 08:35:41;;;;;;;10.52;7.53;;;;;;;20.44;97.67;99183.31;4991378;28;20626;-60
2022/09/05 08:38:06;;;;;;;9.25;7.63;;;;;;;20.39;97.43;99177.78;4997977;28;20338;-60
2022/09/05 08:40:38;;;;;;;8.77;7.47;;;;;;;20.63;96.24;99213.53;5012256;28;20409;-60
2022/09/05 08:43:28;;;;;;;9.98;7.15;;;;;;;20.74;94.62;99208.50;5002786;28;20172;-60
2022/09/05 08:46:00;;;;;;;11.55;7.35;;;;;;;20.83;95.67;99195.94;4991439;28;20030;-58
2022/09/05 08:48:35;;;;;;;8.88;7.40;;;;;;;20.95;95.39;99203.28;4995868;28;20033;-59
2022/09/05 08:51:23;;;;;;;8.55;7.05;;;;;;;20.95;91.92;99205.94;5004480;28;20036;-58
2022/09/05 08:54:15;;;;;;;9.15;6.95;;;;;;;21.04;90.40;99200.28;4999337;28;20041;-59
2022/09/05 08:57:07;;;;;;;9.32;7.35;;;;;;;21.08;90.96;99208.63;5020886;28;20109;-60
2022/09/05 08:59:41;;;;;;;8.80;6.93;;;;;;;21.08;90.51;99203.34;5010233;28;20496;-58
2022/09/05 09:02:35;;;;;;;8.60;7.18;;;;;;;21.06;91.16;99203.53;5007756;28;20046;-59
2022/09/05 09:05:11;;;;;;;9.55;7.35;;;;;;;20.99;95.24;99202.72;5006186;28;20029;-58
2022/09/05 09:07:57;;;;;;;10.43;7.78;;;;;;;21.10;95.47;99203.94;4994299;28;20037;-59
2022/09/05 09:10:41;;;;;;;9.00;7.88;;;;;;;20.96;95.44;99199.66;5009426;28;20037;-59
2022/09/05 09:13:36;;;;;;;9.15;7.60;;;;;;;20.98;93.12;99195.78;5003595;28;20618;-57
2022/09/05 09:16:10;;;;;;;10.40;7.55;;;;;;;20.69;92.02;99165.19;5010101;28;20520;-59
2022/09/05 09:18:47;;;;;;;8.85;6.97;;;;;;;20.96;91.38;99194.38;5012882;28;20033;-59
2022/09/05 09:21:50;;;;;;;9.75;7.38;;;;;;;21.12;91.28;99191.38;5007478;28;20085;-59
2022/09/05 09:24:26;;;;;;;8.48;6.85;;;;;;;21.34;90.07;99197.31;5009120;28;20091;-60
2022/09/05 09:27:21;;;;;;;8.90;6.43;;;;;;;21.36;90.73;99195.28;5009722;28;20694;-58
2022/09/05 09:29:50;;;;;;;8.10;6.75;;;;;;;21.36;89.67;99190.00;4994515;28;20037;-58
2022/09/05 09:32:25;;;;;;;9.05;6.68;;;;;;;21.38;91.17;99187.16;5005500;28;20036;-58
2022/09/05 09:35:11;;;;;;;8.10;6.80;;;;;;;21.27;89.25;99152.34;5003370;28;20172;-58
2022/09/05 09:38:13;;;;;;;7.50;6.22;;;;;;;21.51;87.06;99184.56;5009099;28;20596;-60
2022/09/05 09:40:44;;;;;;;9.73;6.10;;;;;;;21.64;87.19;99186.41;5009649;28;20033;-59
2022/09/05 09:44:04;;;;;;;7.95;6.20;;;;;;;21.81;88.04;99177.06;5011531;28;20755;-58
2022/09/05 09:46:42;;;;;;;7.47;5.82;;;;;;;21.71;86.67;99144.06;4957850;28;20034;-59
2022/09/05 09:49:26;;;;;;;7.82;6.25;;;;;;;21.82;87.41;99176.03;4980000;28;20128;-59
2022/09/05 09:52:10;;;;;;;8.82;6.22;;;;;;;21.86;87.42;99139.38;5004085;28;20129;-59
2022/09/05 09:54:53;;;;;;;7.30;6.18;;;;;;;21.99;83.80;99173.75;5005770;28;20029;-58
2022/09/05 09:57:56;;;;;;;7.95;6.50;;;;;;;22.06;83.57;99169.28;5006246;28;20048;-59
2022/09/05 10:00:23;;;;;;;8.02;6.07;;;;;;;22.16;83.44;99168.03;5008092;28;20025;-59
2022/09/05 10:03:07;;;;;;;7.20;5.90;;;;;;;22.15;82.10;99124.06;5007671;28;20036;-59
2022/09/05 10:05:51;;;;;;;8.57;5.93;;;;;;;22.42;82.16;99161.91;5011351;28;20384;-60
2022/09/05 10:08:54;;;;;;;6.97;5.05;;;;;;;22.53;81.16;99157.81;5012410;28;20042;-60
2022/09/05 10:11:37;;;;;;;7.65;5.43;;;;;;;22.44;81.75;99158.03;5003991;28;20022;-60
2022/09/05 10:14:25;;;;;;;6.80;5.03;;;;;;;22.23;79.16;99158.25;4994468;28;20576;-60
2022/09/05 10:17:06;;;;;;;6.45;4.93;;;;;;;22.39;80.46;99147.25;5019163;28;20053;-60
2022/09/05 10:19:56;;;;;;;7.25;5.30;;;;;;;22.37;77.91;99146.63;5002958;28;20044;-58
2022/09/05 10:22:56;;;;;;;6.80;4.70;;;;;;;22.59;77.59;99138.41;5018750;28;20549;-60
2022/09/05 10:25:43;;;;;;;6.35;4.43;;;;;;;22.63;77.67;99135.16;5005178;28;20041;-60
2022/09/05 10:28:36;;;;;;;6.85;4.70;;;;;;;22.54;76.32;99124.97;5006264;28;20064;-60
2022/09/05 10:31:20;;;;;;;6.15;4.32;;;;;;;22.44;77.36;99122.78;5003621;28;20034;-58
2022/09/05 10:34:21;;;;;;;6.72;4.40;;;;;;;22.42;77.99;99087.75;5013864;28;20548;-59
2022/09/05 10:37:01;;;;;;;6.25;4.50;;;;;;;22.49;76.72;99120.31;5018664;28;20518;-60
2022/09/05 10:39:34;;;;;;;;;;;;;;;22.45;76.86;99116.44;5008226;28;20025;-60
2022/09/05 10:42:07;;;;;;;6.45;4.40;;;;;;;22.55;78.27;99114.16;5017152;28;20632;-58
2022/09/05 10:44:39;;;;;;;6.60;5.10;;;;;;;22.42;81.48;99107.09;5038707;28;20045;-59
2022/09/05 10:47:23;;;;;;;6.68;4.50;;;;;;;22.68;79.44;99110.66;5008765;28;20034;-58
2022/09/05 10:49:59;;;;;;;6.35;4.60;;;;;;;22.84;77.21;99104.06;4993034;28;20113;-59
2022/09/05 10:52:58;;;;;;;5.70;4.00;;;;;;;22.88;74.58;99105.25;5017612;28;20087;-59
2022/09/05 10:55:58;;;;;;;5.95;4.45;;;;;;;22.80;76.35;99101.00;5007309;28;20049;-58
2022/09/05 10:58:27;;;;;;;5.38;3.90;;;;;;;22.96;73.66;99101.53;5004253;28;21310;-58
2022/09/05 11:00:53;;;;;;;6.70;3.67;;;;;;;22.90;73.14;99095.25;5008187;28;20120;-58
2022/09/05 11:03:31;;;;;;;5.90;3.67;;;;;;;22.91;71.52;99057.09;5004551;28;20492;-57
2022/09/05 11:05:58;;;;;;;5.65;3.75;;;;;;;23.09;71.99;99092.69;5013151;28;20701;-57
2022/09/05 11:08:34;;;;;;;5.70;3.53;;;;;;;23.22;72.31;99088.13;5018664;28;20037;-60
2022/09/05 11:11:20;;;;;;;5.50;3.50;;;;;;;23.36;72.24;99086.16;5014068;28;20120;-58
2022/09/05 11:13:47;;;;;;;6.43;3.65;;;;;;;23.32;71.08;99084.19;5028022;28;20720;-58
2022/09/05 11:16:31;;;;;;;5.35;3.88;;;;;;;23.20;70.96;99071.63;4995195;28;20112;-58
2022/09/05 11:19:03;;;;;;;5.47;3.90;;;;;;;22.96;71.75;99040.53;5005878;28;20392;-58
2022/09/05 11:21:50;;;;;;;8.95;3.42;;;;;;;23.44;72.53;99063.88;4998349;28;20045;-57
2022/09/05 11:24:32;;;;;;;4.95;3.50;;;;;;;23.55;70.43;99063.16;5006605;28;20083;-57
2022/09/05 11:27:04;;;;;;;6.75;3.75;;;;;;;23.57;69.81;99060.31;5006042;28;20026;-59
2022/09/05 11:30:12;;;;;;;5.85;3.53;;;;;;;23.44;69.71;99061.22;5006825;28;20125;-61
2022/09/05 11:32:46;;;;;;;4.93;3.22;;;;;;;23.51;70.07;99062.00;5010299;28;20045;-59
2022/09/05 11:35:19;;;;;;;6.25;3.53;;;;;;;23.60;68.31;99052.72;5009117;28;20044;-61
2022/09/05 11:38:27;;;;;;;5.25;4.13;;;;;;;23.61;68.17;99056.97;4994704;28;20046;-63
2022/09/05 11:41:50;;;;;;;5.80;3.67;;;;;;;23.45;68.92;99054.88;5010684;28;20034;-60
2022/09/05 11:44:33;;;;;;;5.50;3.80;;;;;;;23.14;69.78;99014.13;4975429;28;20049;-60
2022/09/05 11:47:04;;;;;;;4.95;3.60;;;;;;;23.36;70.48;99043.72;4943404;28;20358;-62
2022/09/05 11:50:06;;;;;;;6.18;3.85;;;;;;;23.26;70.66;99039.97;5018858;28;20393;-61
2022/09/05 11:53:09;;;;;;;5.40;3.78;;;;;;;23.38;71.36;99031.06;5003309;28;20026;-60
2022/09/05 11:56:06;;;;;;;5.32;3.67;;;;;;;23.51;71.42;99029.31;5011971;28;20562;-60
2022/09/05 11:58:54;;;;;;;5.63;3.83;;;;;;;23.74;70.28;99026.84;5010671;28;20034;-61
2022/09/05 12:01:31;;;;;;;5.32;3.90;;;;;;;23.83;69.10;99026.59;5005973;28;20049;-62
2022/09/05 12:04:26;;;;;;;6.90;3.80;;;;;;;23.90;67.83;99022.00;5005272;28;20079;-60
2022/09/05 12:07:05;;;;;;;6.00;3.90;;;;;;;23.83;67.97;99018.63;5005319;28;20033;-63
2022/09/05 12:10:09;;;;;;;6.15;4.07;;;;;;;23.96;68.49;99021.94;5006301;28;20029;-60
2022/09/05 12:12:43;;;;;;;7.25;4.00;;;;;;;23.76;67.25;98981.47;5003975;28;20033;-60
2022/09/05 12:15:23;;;;;;;6.00;4.10;;;;;;;23.87;68.73;99023.25;5013045;28;20033;-60
2022/09/05 12:18:06;;;;;;;6.30;4.30;;;;;;;23.86;69.96;99018.16;5021183;28;20329;-61
2022/09/05 12:21:03;;;;;;;6.63;4.07;;;;;;;23.78;70.58;99006.78;4996063;28;20037;-62
2022/09/05 12:23:42;;;;;;;7.25;4.05;;;;;;;23.69;69.63;98999.31;5008927;28;20112;-60
2022/09/05 12:26:17;;;;;;;5.40;3.88;;;;;;;23.85;66.19;98995.31;5013782;28;20033;-63
2022/09/05 12:28:59;;;;;;;5.97;4.38;;;;;;;23.99;66.87;98988.81;5003047;28;20563;-62
2022/09/05 12:31:33;;;;;;;6.70;4.13;;;;;;;24.17;64.59;98994.09;4999304;28;20029;-59
2022/09/05 12:34:00;;;;;;;6.90;4.28;;;;;;;24.08;66.18;98960.91;4999086;28;20695;-61
2022/09/05 12:36:42;;;;;;;6.53;4.57;;;;;;;24.33;69.26;98997.16;5037714;28;20028;-60
2022/09/05 12:39:35;;;;;;;6.25;4.85;;;;;;;24.44;63.67;98991.09;5025835;28;20034;-60
2022/09/05 12:42:27;;;;;;;9.32;5.00;;;;;;;24.39;63.84;98993.63;5020325;28;20091;-61